sensor_id;sensor_type;location;lat;lon;timestamp;temperature;humidity
18575;DHT22;9417;16.484;102.872;2023-06-14T00:02:04;28.30;79.60
18575;DHT22;9417;16.484;102.872;2023-06-14T00:04:13;28.30;79.50
18575;DHT22;9417;16.484;102.872;2023-06-14T00:06:21;28.40;79.50
18575;DHT22;9417;16.484;102.872;2023-06-14T00:08:29;28.40;79.50
18575;DHT22;9417;16.484;102.872;2023-06-14T00:10:36;28.40;79.40
18575;DHT22;9417;16.484;102.872;2023-06-14T00:12:45;28.40;79.30
18575;DHT22;9417;16.484;102.872;2023-06-14T00:14:53;28.50;79.40
18575;DHT22;9417;16.484;102.872;2023-06-14T00:17:01;28.50;79.40
18575;DHT22;9417;16.484;102.872;2023-06-14T00:19:09;28.60;79.40
18575;DHT22;9417;16.484;102.872;2023-06-14T00:21:16;28.60;78.90
18575;DHT22;9417;16.484;102.872;2023-06-14T00:23:24;28.60;78.70
18575;DHT22;9417;16.484;102.872;2023-06-14T00:25:31;28.70;78.40
18575;DHT22;9417;16.484;102.872;2023-06-14T00:27:38;28.70;78.20
18575;DHT22;9417;16.484;102.872;2023-06-14T00:29:46;28.80;78.10
18575;DHT22;9417;16.484;102.872;2023-06-14T00:31:53;28.80;77.90
18575;DHT22;9417;16.484;102.872;2023-06-14T00:34:04;28.80;77.90
18575;DHT22;9417;16.484;102.872;2023-06-14T00:36:11;28.80;77.70
18575;DHT22;9417;16.484;102.872;2023-06-14T00:38:18;28.90;77.70
18575;DHT22;9417;16.484;102.872;2023-06-14T00:40:25;28.90;77.80
18575;DHT22;9417;16.484;102.872;2023-06-14T00:42:33;28.90;78.00
18575;DHT22;9417;16.484;102.872;2023-06-14T00:44:40;28.90;78.20
18575;DHT22;9417;16.484;102.872;2023-06-14T00:46:47;28.90;78.30
18575;DHT22;9417;16.484;102.872;2023-06-14T00:48:55;29.00;78.40
18575;DHT22;9417;16.484;102.872;2023-06-14T00:51:04;28.90;78.20
18575;DHT22;9417;16.484;102.872;2023-06-14T00:53:12;29.00;78.00
18575;DHT22;9417;16.484;102.872;2023-06-14T00:55:20;29.00;77.80
18575;DHT22;9417;16.484;102.872;2023-06-14T00:57:30;29.00;77.90
18575;DHT22;9417;16.484;102.872;2023-06-14T00:59:41;29.00;77.80
18575;DHT22;9417;16.484;102.872;2023-06-14T01:01:49;29.00;78.10
18575;DHT22;9417;16.484;102.872;2023-06-14T01:03:57;29.00;77.90
18575;DHT22;9417;16.484;102.872;2023-06-14T01:06:29;29.10;77.70
18575;DHT22;9417;16.484;102.872;2023-06-14T01:08:43;29.10;77.50
18575;DHT22;9417;16.484;102.872;2023-06-14T01:10:59;29.10;77.60
18575;DHT22;9417;16.484;102.872;2023-06-14T01:13:13;29.10;77.50
18575;DHT22;9417;16.484;102.872;2023-06-14T01:15:23;29.20;77.60
18575;DHT22;9417;16.484;102.872;2023-06-14T01:17:31;29.20;77.40
18575;DHT22;9417;16.484;102.872;2023-06-14T01:19:39;29.30;77.20
18575;DHT22;9417;16.484;102.872;2023-06-14T01:21:51;29.30;77.20
18575;DHT22;9417;16.484;102.872;2023-06-14T01:24:00;29.30;76.90
18575;DHT22;9417;16.484;102.872;2023-06-14T01:26:08;29.40;76.60
18575;DHT22;9417;16.484;102.872;2023-06-14T01:28:16;29.40;76.50
18575;DHT22;9417;16.484;102.872;2023-06-14T01:30:24;29.40;76.50
18575;DHT22;9417;16.484;102.872;2023-06-14T01:32:32;29.40;76.40
18575;DHT22;9417;16.484;102.872;2023-06-14T01:34:40;29.50;76.50
18575;DHT22;9417;16.484;102.872;2023-06-14T01:36:48;29.60;76.60
18575;DHT22;9417;16.484;102.872;2023-06-14T01:38:56;29.60;76.10
18575;DHT22;9417;16.484;102.872;2023-06-14T01:41:07;29.60;76.00
18575;DHT22;9417;16.484;102.872;2023-06-14T01:43:15;29.70;75.80
18575;DHT22;9417;16.484;102.872;2023-06-14T01:45:23;29.70;75.90
18575;DHT22;9417;16.484;102.872;2023-06-14T01:47:33;29.70;75.80
18575;DHT22;9417;16.484;102.872;2023-06-14T01:49:40;29.70;75.60
18575;DHT22;9417;16.484;102.872;2023-06-14T01:51:48;29.80;75.40
18575;DHT22;9417;16.484;102.872;2023-06-14T01:53:55;29.90;75.30
18575;DHT22;9417;16.484;102.872;2023-06-14T01:56:02;29.80;74.90
18575;DHT22;9417;16.484;102.872;2023-06-14T01:58:11;29.90;74.70
18575;DHT22;9417;16.484;102.872;2023-06-14T02:00:20;30.00;74.60
18575;DHT22;9417;16.484;102.872;2023-06-14T02:02:28;30.00;74.60
18575;DHT22;9417;16.484;102.872;2023-06-14T02:04:36;30.10;74.70
18575;DHT22;9417;16.484;102.872;2023-06-14T02:06:43;30.20;74.40
18575;DHT22;9417;16.484;102.872;2023-06-14T02:08:50;30.20;73.90
18575;DHT22;9417;16.484;102.872;2023-06-14T02:10:57;30.20;73.60
18575;DHT22;9417;16.484;102.872;2023-06-14T02:13:04;30.30;73.70
18575;DHT22;9417;16.484;102.872;2023-06-14T02:15:13;30.30;73.60
18575;DHT22;9417;16.484;102.872;2023-06-14T02:17:21;30.30;73.70
18575;DHT22;9417;16.484;102.872;2023-06-14T02:19:30;30.30;73.80
18575;DHT22;9417;16.484;102.872;2023-06-14T02:21:39;30.30;73.80
18575;DHT22;9417;16.484;102.872;2023-06-14T02:23:48;30.30;73.80
18575;DHT22;9417;16.484;102.872;2023-06-14T02:25:56;30.20;73.90
18575;DHT22;9417;16.484;102.872;2023-06-14T02:28:04;30.20;73.60
18575;DHT22;9417;16.484;102.872;2023-06-14T02:30:13;30.10;73.40
18575;DHT22;9417;16.484;102.872;2023-06-14T02:32:21;30.10;73.50
18575;DHT22;9417;16.484;102.872;2023-06-14T02:34:28;30.00;73.20
18575;DHT22;9417;16.484;102.872;2023-06-14T02:36:35;30.00;73.60
18575;DHT22;9417;16.484;102.872;2023-06-14T02:38:46;30.00;73.40
18575;DHT22;9417;16.484;102.872;2023-06-14T02:40:54;30.00;73.30
18575;DHT22;9417;16.484;102.872;2023-06-14T02:43:02;30.00;73.40
18575;DHT22;9417;16.484;102.872;2023-06-14T02:45:10;30.00;73.40
18575;DHT22;9417;16.484;102.872;2023-06-14T02:47:18;30.00;73.60
18575;DHT22;9417;16.484;102.872;2023-06-14T02:49:25;30.00;73.70
18575;DHT22;9417;16.484;102.872;2023-06-14T02:51:33;30.00;73.60
18575;DHT22;9417;16.484;102.872;2023-06-14T02:53:40;30.00;73.60
18575;DHT22;9417;16.484;102.872;2023-06-14T02:55:48;30.00;73.50
18575;DHT22;9417;16.484;102.872;2023-06-14T02:57:55;30.00;73.50
18575;DHT22;9417;16.484;102.872;2023-06-14T03:00:05;30.00;73.30
18575;DHT22;9417;16.484;102.872;2023-06-14T03:02:14;30.10;73.40
18575;DHT22;9417;16.484;102.872;2023-06-14T03:04:23;30.10;73.40
18575;DHT22;9417;16.484;102.872;2023-06-14T03:06:31;30.30;73.00
18575;DHT22;9417;16.484;102.872;2023-06-14T03:08:38;30.30;72.60
18575;DHT22;9417;16.484;102.872;2023-06-14T03:10:49;30.40;72.40
18575;DHT22;9417;16.484;102.872;2023-06-14T03:12:57;30.40;71.90
18575;DHT22;9417;16.484;102.872;2023-06-14T03:15:05;30.40;72.00
18575;DHT22;9417;16.484;102.872;2023-06-14T03:17:15;30.40;72.10
18575;DHT22;9417;16.484;102.872;2023-06-14T03:19:24;30.40;72.30
18575;DHT22;9417;16.484;102.872;2023-06-14T03:21:32;30.40;72.40
18575;DHT22;9417;16.484;102.872;2023-06-14T03:23:39;30.40;72.50
18575;DHT22;9417;16.484;102.872;2023-06-14T03:25:47;30.40;72.60
18575;DHT22;9417;16.484;102.872;2023-06-14T03:27:55;30.50;72.60
18575;DHT22;9417;16.484;102.872;2023-06-14T03:30:02;30.60;72.60
18575;DHT22;9417;16.484;102.872;2023-06-14T03:32:10;30.70;72.60
18575;DHT22;9417;16.484;102.872;2023-06-14T03:34:19;30.70;72.30
18575;DHT22;9417;16.484;102.872;2023-06-14T03:36:29;30.70;71.80
18575;DHT22;9417;16.484;102.872;2023-06-14T03:38:38;30.80;71.80
18575;DHT22;9417;16.484;102.872;2023-06-14T03:40:46;30.80;71.80
18575;DHT22;9417;16.484;102.872;2023-06-14T03:42:53;30.80;71.80
18575;DHT22;9417;16.484;102.872;2023-06-14T03:45:01;30.90;72.30
18575;DHT22;9417;16.484;102.872;2023-06-14T03:47:08;30.90;71.90
18575;DHT22;9417;16.484;102.872;2023-06-14T03:49:15;30.90;71.50
18575;DHT22;9417;16.484;102.872;2023-06-14T03:51:23;30.90;71.40
18575;DHT22;9417;16.484;102.872;2023-06-14T03:53:32;31.00;71.40
18575;DHT22;9417;16.484;102.872;2023-06-14T03:55:57;31.00;71.70
18575;DHT22;9417;16.484;102.872;2023-06-14T03:58:14;31.00;71.30
18575;DHT22;9417;16.484;102.872;2023-06-14T04:00:22;31.00;70.90
18575;DHT22;9417;16.484;102.872;2023-06-14T04:02:29;31.10;70.60
18575;DHT22;9417;16.484;102.872;2023-06-14T04:04:37;31.10;70.30
18575;DHT22;9417;16.484;102.872;2023-06-14T04:06:45;31.20;70.40
18575;DHT22;9417;16.484;102.872;2023-06-14T04:08:54;31.20;70.10
18575;DHT22;9417;16.484;102.872;2023-06-14T04:11:02;31.20;69.80
18575;DHT22;9417;16.484;102.872;2023-06-14T04:13:10;31.10;69.80
18575;DHT22;9417;16.484;102.872;2023-06-14T04:15:18;31.10;69.70
18575;DHT22;9417;16.484;102.872;2023-06-14T04:17:31;31.10;69.30
18575;DHT22;9417;16.484;102.872;2023-06-14T04:19:40;31.10;69.80
18575;DHT22;9417;16.484;102.872;2023-06-14T04:21:48;31.10;69.80
18575;DHT22;9417;16.484;102.872;2023-06-14T04:23:57;31.10;69.60
18575;DHT22;9417;16.484;102.872;2023-06-14T04:26:08;31.20;68.90
18575;DHT22;9417;16.484;102.872;2023-06-14T04:28:16;31.30;68.50
18575;DHT22;9417;16.484;102.872;2023-06-14T04:30:24;31.30;68.40
18575;DHT22;9417;16.484;102.872;2023-06-14T04:32:34;31.30;68.60
18575;DHT22;9417;16.484;102.872;2023-06-14T04:34:46;31.40;68.30
18575;DHT22;9417;16.484;102.872;2023-06-14T04:36:53;31.40;68.10
18575;DHT22;9417;16.484;102.872;2023-06-14T04:39:09;31.50;68.50
18575;DHT22;9417;16.484;102.872;2023-06-14T04:41:18;31.50;68.30
18575;DHT22;9417;16.484;102.872;2023-06-14T04:43:25;31.60;67.90
18575;DHT22;9417;16.484;102.872;2023-06-14T04:45:33;31.60;68.20
18575;DHT22;9417;16.484;102.872;2023-06-14T04:47:43;31.60;68.20
18575;DHT22;9417;16.484;102.872;2023-06-14T04:49:51;31.60;68.10
18575;DHT22;9417;16.484;102.872;2023-06-14T04:51:59;31.60;68.00
18575;DHT22;9417;16.484;102.872;2023-06-14T04:54:18;31.60;68.30
18575;DHT22;9417;16.484;102.872;2023-06-14T04:56:25;31.50;67.70
18575;DHT22;9417;16.484;102.872;2023-06-14T04:58:34;31.50;67.90
18575;DHT22;9417;16.484;102.872;2023-06-14T05:00:41;31.50;68.20
18575;DHT22;9417;16.484;102.872;2023-06-14T05:02:48;31.50;68.00
18575;DHT22;9417;16.484;102.872;2023-06-14T05:04:58;31.50;67.50
18575;DHT22;9417;16.484;102.872;2023-06-14T05:07:07;31.40;67.70
18575;DHT22;9417;16.484;102.872;2023-06-14T05:09:15;31.40;68.00
18575;DHT22;9417;16.484;102.872;2023-06-14T05:11:24;31.50;67.90
18575;DHT22;9417;16.484;102.872;2023-06-14T05:13:32;31.60;68.10
18575;DHT22;9417;16.484;102.872;2023-06-14T05:15:39;31.60;67.60
18575;DHT22;9417;16.484;102.872;2023-06-14T05:17:47;31.80;67.70
18575;DHT22;9417;16.484;102.872;2023-06-14T05:19:57;31.90;67.60
18575;DHT22;9417;16.484;102.872;2023-06-14T05:22:05;32.00;66.70
18575;DHT22;9417;16.484;102.872;2023-06-14T05:24:12;32.10;66.60
18575;DHT22;9417;16.484;102.872;2023-06-14T05:26:19;32.20;66.40
18575;DHT22;9417;16.484;102.872;2023-06-14T05:28:29;32.20;65.90
18575;DHT22;9417;16.484;102.872;2023-06-14T05:30:38;32.30;65.40
18575;DHT22;9417;16.484;102.872;2023-06-14T05:32:45;32.30;66.00
18575;DHT22;9417;16.484;102.872;2023-06-14T05:34:53;32.40;66.40
18575;DHT22;9417;16.484;102.872;2023-06-14T05:37:00;32.30;66.50
18575;DHT22;9417;16.484;102.872;2023-06-14T05:39:08;32.30;65.60
18575;DHT22;9417;16.484;102.872;2023-06-14T05:41:15;32.30;65.40
18575;DHT22;9417;16.484;102.872;2023-06-14T05:43:23;32.30;65.50
18575;DHT22;9417;16.484;102.872;2023-06-14T05:45:32;32.40;66.00
18575;DHT22;9417;16.484;102.872;2023-06-14T05:47:39;32.50;65.90
18575;DHT22;9417;16.484;102.872;2023-06-14T05:49:46;32.50;65.60
18575;DHT22;9417;16.484;102.872;2023-06-14T05:51:53;32.50;65.20
18575;DHT22;9417;16.484;102.872;2023-06-14T05:54:00;32.50;64.70
18575;DHT22;9417;16.484;102.872;2023-06-14T05:56:07;32.40;64.90
18575;DHT22;9417;16.484;102.872;2023-06-14T05:58:15;32.40;65.30
18575;DHT22;9417;16.484;102.872;2023-06-14T06:00:22;32.40;64.70
18575;DHT22;9417;16.484;102.872;2023-06-14T06:02:31;32.40;65.10
18575;DHT22;9417;16.484;102.872;2023-06-14T06:04:38;32.40;64.70
18575;DHT22;9417;16.484;102.872;2023-06-14T06:06:45;32.40;64.80
18575;DHT22;9417;16.484;102.872;2023-06-14T06:08:53;32.40;64.50
18575;DHT22;9417;16.484;102.872;2023-06-14T06:11:00;32.40;64.70
18575;DHT22;9417;16.484;102.872;2023-06-14T06:13:07;32.40;64.50
18575;DHT22;9417;16.484;102.872;2023-06-14T06:15:14;32.40;64.30
18575;DHT22;9417;16.484;102.872;2023-06-14T06:17:22;32.50;64.10
18575;DHT22;9417;16.484;102.872;2023-06-14T06:19:40;32.50;64.80
18575;DHT22;9417;16.484;102.872;2023-06-14T06:21:47;32.60;65.00
18575;DHT22;9417;16.484;102.872;2023-06-14T06:23:54;32.60;64.70
18575;DHT22;9417;16.484;102.872;2023-06-14T06:26:02;32.60;64.70
18575;DHT22;9417;16.484;102.872;2023-06-14T06:28:09;32.60;64.50
18575;DHT22;9417;16.484;102.872;2023-06-14T06:30:16;32.50;64.70
18575;DHT22;9417;16.484;102.872;2023-06-14T06:32:23;32.50;65.00
18575;DHT22;9417;16.484;102.872;2023-06-14T06:34:30;32.40;64.90
18575;DHT22;9417;16.484;102.872;2023-06-14T06:36:39;32.40;65.20
18575;DHT22;9417;16.484;102.872;2023-06-14T06:38:47;32.40;64.90
18575;DHT22;9417;16.484;102.872;2023-06-14T06:40:54;32.40;65.00
18575;DHT22;9417;16.484;102.872;2023-06-14T06:43:02;32.40;64.70
18575;DHT22;9417;16.484;102.872;2023-06-14T06:45:17;32.50;64.30
18575;DHT22;9417;16.484;102.872;2023-06-14T06:47:27;32.50;64.50
18575;DHT22;9417;16.484;102.872;2023-06-14T06:49:35;32.60;64.60
18575;DHT22;9417;16.484;102.872;2023-06-14T06:51:48;32.70;64.20
18575;DHT22;9417;16.484;102.872;2023-06-14T06:54:05;32.80;63.70
18575;DHT22;9417;16.484;102.872;2023-06-14T06:56:13;32.80;63.00
18575;DHT22;9417;16.484;102.872;2023-06-14T06:58:20;32.90;63.10
18575;DHT22;9417;16.484;102.872;2023-06-14T07:00:28;32.90;62.60
18575;DHT22;9417;16.484;102.872;2023-06-14T07:02:35;32.90;62.90
18575;DHT22;9417;16.484;102.872;2023-06-14T07:04:43;32.90;62.40
18575;DHT22;9417;16.484;102.872;2023-06-14T07:06:52;33.00;62.50
18575;DHT22;9417;16.484;102.872;2023-06-14T07:08:59;33.00;62.50
18575;DHT22;9417;16.484;102.872;2023-06-14T07:11:06;33.10;62.00
18575;DHT22;9417;16.484;102.872;2023-06-14T07:13:14;33.10;62.70
18575;DHT22;9417;16.484;102.872;2023-06-14T07:15:21;33.10;63.60
18575;DHT22;9417;16.484;102.872;2023-06-14T07:17:28;33.10;63.10
18575;DHT22;9417;16.484;102.872;2023-06-14T07:19:35;33.00;63.20
18575;DHT22;9417;16.484;102.872;2023-06-14T07:21:44;33.00;63.30
18575;DHT22;9417;16.484;102.872;2023-06-14T07:23:54;33.00;63.60
18575;DHT22;9417;16.484;102.872;2023-06-14T07:26:01;33.00;63.90
18575;DHT22;9417;16.484;102.872;2023-06-14T07:28:08;33.00;64.30
18575;DHT22;9417;16.484;102.872;2023-06-14T07:30:16;33.00;64.20
18575;DHT22;9417;16.484;102.872;2023-06-14T07:32:22;32.90;64.20
18575;DHT22;9417;16.484;102.872;2023-06-14T07:34:30;32.90;64.30
18575;DHT22;9417;16.484;102.872;2023-06-14T07:36:37;32.90;64.10
18575;DHT22;9417;16.484;102.872;2023-06-14T07:38:44;32.90;63.70
18575;DHT22;9417;16.484;102.872;2023-06-14T07:40:54;32.80;63.50
18575;DHT22;9417;16.484;102.872;2023-06-14T07:43:01;32.80;63.20
18575;DHT22;9417;16.484;102.872;2023-06-14T07:45:09;32.70;63.30
18575;DHT22;9417;16.484;102.872;2023-06-14T07:47:17;32.70;63.30
18575;DHT22;9417;16.484;102.872;2023-06-14T07:49:24;32.70;63.50
18575;DHT22;9417;16.484;102.872;2023-06-14T07:51:31;32.70;63.50
18575;DHT22;9417;16.484;102.872;2023-06-14T07:53:38;32.60;63.80
18575;DHT22;9417;16.484;102.872;2023-06-14T07:55:45;32.60;64.30
18575;DHT22;9417;16.484;102.872;2023-06-14T07:57:58;32.60;64.40
18575;DHT22;9417;16.484;102.872;2023-06-14T08:00:06;32.60;64.30
18575;DHT22;9417;16.484;102.872;2023-06-14T08:02:17;32.60;64.50
18575;DHT22;9417;16.484;102.872;2023-06-14T08:04:24;32.60;65.00
18575;DHT22;9417;16.484;102.872;2023-06-14T08:06:31;32.60;64.70
18575;DHT22;9417;16.484;102.872;2023-06-14T08:08:40;32.70;64.10
18575;DHT22;9417;16.484;102.872;2023-06-14T08:10:47;32.70;63.70
18575;DHT22;9417;16.484;102.872;2023-06-14T08:12:54;32.60;63.60
18575;DHT22;9417;16.484;102.872;2023-06-14T08:15:03;32.60;64.10
18575;DHT22;9417;16.484;102.872;2023-06-14T08:17:17;32.60;64.20
18575;DHT22;9417;16.484;102.872;2023-06-14T08:19:24;32.60;64.00
18575;DHT22;9417;16.484;102.872;2023-06-14T08:21:31;32.50;63.90
18575;DHT22;9417;16.484;102.872;2023-06-14T08:23:41;32.50;64.20
18575;DHT22;9417;16.484;102.872;2023-06-14T08:25:48;32.50;64.10
18575;DHT22;9417;16.484;102.872;2023-06-14T08:27:55;32.40;64.00
18575;DHT22;9417;16.484;102.872;2023-06-14T08:30:06;32.40;63.90
18575;DHT22;9417;16.484;102.872;2023-06-14T08:32:13;32.40;64.10
18575;DHT22;9417;16.484;102.872;2023-06-14T08:34:20;32.40;64.10
18575;DHT22;9417;16.484;102.872;2023-06-14T08:36:28;32.40;64.40
18575;DHT22;9417;16.484;102.872;2023-06-14T08:38:35;32.40;64.30
18575;DHT22;9417;16.484;102.872;2023-06-14T08:40:44;32.30;64.10
18575;DHT22;9417;16.484;102.872;2023-06-14T08:42:53;32.30;64.60
18575;DHT22;9417;16.484;102.872;2023-06-14T08:45:00;32.40;64.80
18575;DHT22;9417;16.484;102.872;2023-06-14T08:47:11;32.30;64.80
18575;DHT22;9417;16.484;102.872;2023-06-14T08:49:18;32.30;64.90
18575;DHT22;9417;16.484;102.872;2023-06-14T08:51:26;32.20;64.20
18575;DHT22;9417;16.484;102.872;2023-06-14T08:53:39;32.30;64.10
18575;DHT22;9417;16.484;102.872;2023-06-14T08:55:47;32.20;63.80
18575;DHT22;9417;16.484;102.872;2023-06-14T08:57:56;32.20;63.90
18575;DHT22;9417;16.484;102.872;2023-06-14T09:00:05;32.20;63.90
18575;DHT22;9417;16.484;102.872;2023-06-14T09:02:19;32.20;63.70
18575;DHT22;9417;16.484;102.872;2023-06-14T09:04:27;32.20;63.80
18575;DHT22;9417;16.484;102.872;2023-06-14T09:06:34;32.20;63.80
18575;DHT22;9417;16.484;102.872;2023-06-14T09:08:43;32.20;63.80
18575;DHT22;9417;16.484;102.872;2023-06-14T09:10:51;32.20;63.50
18575;DHT22;9417;16.484;102.872;2023-06-14T09:12:58;32.20;63.40
18575;DHT22;9417;16.484;102.872;2023-06-14T09:15:08;32.20;63.30
18575;DHT22;9417;16.484;102.872;2023-06-14T09:17:18;32.20;63.30
18575;DHT22;9417;16.484;102.872;2023-06-14T09:19:25;32.20;63.40
18575;DHT22;9417;16.484;102.872;2023-06-14T09:21:34;32.20;63.30
18575;DHT22;9417;16.484;102.872;2023-06-14T09:23:43;32.30;63.30
18575;DHT22;9417;16.484;102.872;2023-06-14T09:25:51;32.30;63.50
18575;DHT22;9417;16.484;102.872;2023-06-14T09:27:59;32.30;63.60
18575;DHT22;9417;16.484;102.872;2023-06-14T09:30:08;32.30;63.60
18575;DHT22;9417;16.484;102.872;2023-06-14T09:32:17;32.30;63.80
18575;DHT22;9417;16.484;102.872;2023-06-14T09:34:25;32.30;64.00
18575;DHT22;9417;16.484;102.872;2023-06-14T09:36:32;32.30;63.90
18575;DHT22;9417;16.484;102.872;2023-06-14T09:38:41;32.40;64.00
18575;DHT22;9417;16.484;102.872;2023-06-14T09:40:49;32.40;64.20
18575;DHT22;9417;16.484;102.872;2023-06-14T09:42:58;32.40;63.80
18575;DHT22;9417;16.484;102.872;2023-06-14T09:45:06;32.40;63.70
18575;DHT22;9417;16.484;102.872;2023-06-14T09:47:18;32.40;63.60
18575;DHT22;9417;16.484;102.872;2023-06-14T09:49:25;32.40;63.60
18575;DHT22;9417;16.484;102.872;2023-06-14T09:51:42;32.40;63.60
18575;DHT22;9417;16.484;102.872;2023-06-14T09:53:51;32.40;63.70
18575;DHT22;9417;16.484;102.872;2023-06-14T09:55:58;32.30;64.10
18575;DHT22;9417;16.484;102.872;2023-06-14T09:58:06;32.30;63.80
18575;DHT22;9417;16.484;102.872;2023-06-14T10:00:15;32.30;63.60
18575;DHT22;9417;16.484;102.872;2023-06-14T10:02:28;32.30;63.80
18575;DHT22;9417;16.484;102.872;2023-06-14T10:04:36;32.30;64.10
18575;DHT22;9417;16.484;102.872;2023-06-14T10:06:45;32.30;64.20
18575;DHT22;9417;16.484;102.872;2023-06-14T10:08:54;32.20;64.10
18575;DHT22;9417;16.484;102.872;2023-06-14T10:11:04;32.30;63.90
18575;DHT22;9417;16.484;102.872;2023-06-14T10:13:12;32.20;63.90
18575;DHT22;9417;16.484;102.872;2023-06-14T10:15:22;32.20;64.10
18575;DHT22;9417;16.484;102.872;2023-06-14T10:17:38;32.20;64.00
18575;DHT22;9417;16.484;102.872;2023-06-14T10:19:50;32.10;63.80
18575;DHT22;9417;16.484;102.872;2023-06-14T10:22:01;32.10;63.90
18575;DHT22;9417;16.484;102.872;2023-06-14T10:24:12;32.00;64.10
18575;DHT22;9417;16.484;102.872;2023-06-14T10:26:21;32.00;64.10
18575;DHT22;9417;16.484;102.872;2023-06-14T10:28:28;32.00;64.00
18575;DHT22;9417;16.484;102.872;2023-06-14T10:30:37;31.90;64.10
18575;DHT22;9417;16.484;102.872;2023-06-14T10:33:05;31.90;64.20
18575;DHT22;9417;16.484;102.872;2023-06-14T10:35:17;31.90;64.40
18575;DHT22;9417;16.484;102.872;2023-06-14T10:37:23;31.90;64.50
18575;DHT22;9417;16.484;102.872;2023-06-14T10:39:32;31.90;64.40
18575;DHT22;9417;16.484;102.872;2023-06-14T10:41:39;31.80;64.50
18575;DHT22;9417;16.484;102.872;2023-06-14T10:43:47;31.80;64.60
18575;DHT22;9417;16.484;102.872;2023-06-14T10:46:14;31.80;64.70
18575;DHT22;9417;16.484;102.872;2023-06-14T10:48:32;31.80;64.90
18575;DHT22;9417;16.484;102.872;2023-06-14T10:50:43;31.70;64.80
18575;DHT22;9417;16.484;102.872;2023-06-14T10:52:51;31.70;64.80
18575;DHT22;9417;16.484;102.872;2023-06-14T10:55:06;31.70;65.00
18575;DHT22;9417;16.484;102.872;2023-06-14T10:57:16;31.60;65.20
18575;DHT22;9417;16.484;102.872;2023-06-14T10:59:23;31.60;65.10
18575;DHT22;9417;16.484;102.872;2023-06-14T11:01:36;31.50;64.90
18575;DHT22;9417;16.484;102.872;2023-06-14T11:03:51;31.50;64.80
18575;DHT22;9417;16.484;102.872;2023-06-14T11:05:59;31.50;64.70
18575;DHT22;9417;16.484;102.872;2023-06-14T11:10:42;31.50;64.90
18575;DHT22;9417;16.484;102.872;2023-06-14T11:12:50;31.50;65.20
18575;DHT22;9417;16.484;102.872;2023-06-14T11:14:59;31.40;65.50
18575;DHT22;9417;16.484;102.872;2023-06-14T11:17:06;31.40;65.50
18575;DHT22;9417;16.484;102.872;2023-06-14T11:19:15;31.40;65.70
18575;DHT22;9417;16.484;102.872;2023-06-14T11:21:24;31.40;65.80
18575;DHT22;9417;16.484;102.872;2023-06-14T11:23:36;31.40;65.80
18575;DHT22;9417;16.484;102.872;2023-06-14T11:25:43;31.30;65.80
18575;DHT22;9417;16.484;102.872;2023-06-14T11:27:51;31.30;66.00
18575;DHT22;9417;16.484;102.872;2023-06-14T11:29:58;31.30;66.10
18575;DHT22;9417;16.484;102.872;2023-06-14T11:32:08;31.30;66.20
18575;DHT22;9417;16.484;102.872;2023-06-14T11:34:19;31.30;66.40
18575;DHT22;9417;16.484;102.872;2023-06-14T11:36:27;31.20;66.80
18575;DHT22;9417;16.484;102.872;2023-06-14T11:38:38;31.20;66.90
18575;DHT22;9417;16.484;102.872;2023-06-14T11:40:45;31.20;67.10
18575;DHT22;9417;16.484;102.872;2023-06-14T11:42:59;31.10;67.30
18575;DHT22;9417;16.484;102.872;2023-06-14T11:45:09;31.10;67.20
18575;DHT22;9417;16.484;102.872;2023-06-14T11:47:17;31.10;67.20
18575;DHT22;9417;16.484;102.872;2023-06-14T11:49:26;31.10;67.20
18575;DHT22;9417;16.484;102.872;2023-06-14T11:51:34;31.10;67.40
18575;DHT22;9417;16.484;102.872;2023-06-14T11:53:43;31.10;67.90
18575;DHT22;9417;16.484;102.872;2023-06-14T11:55:50;31.00;68.30
18575;DHT22;9417;16.484;102.872;2023-06-14T11:57:58;31.00;68.80
18575;DHT22;9417;16.484;102.872;2023-06-14T12:00:06;30.90;69.00
18575;DHT22;9417;16.484;102.872;2023-06-14T12:02:16;30.90;69.10
18575;DHT22;9417;16.484;102.872;2023-06-14T12:04:29;30.80;70.00
18575;DHT22;9417;16.484;102.872;2023-06-14T12:06:36;30.80;69.40
18575;DHT22;9417;16.484;102.872;2023-06-14T12:08:44;30.80;69.60
18575;DHT22;9417;16.484;102.872;2023-06-14T12:10:54;30.80;69.60
18575;DHT22;9417;16.484;102.872;2023-06-14T12:13:01;30.80;69.70
18575;DHT22;9417;16.484;102.872;2023-06-14T12:15:09;30.70;69.90
18575;DHT22;9417;16.484;102.872;2023-06-14T12:17:18;30.70;69.80
18575;DHT22;9417;16.484;102.872;2023-06-14T12:19:28;30.60;69.80
18575;DHT22;9417;16.484;102.872;2023-06-14T12:21:37;30.70;69.90
18575;DHT22;9417;16.484;102.872;2023-06-14T12:23:47;30.60;70.10
18575;DHT22;9417;16.484;102.872;2023-06-14T12:25:59;30.60;70.30
18575;DHT22;9417;16.484;102.872;2023-06-14T12:28:07;30.60;70.40
18575;DHT22;9417;16.484;102.872;2023-06-14T12:30:14;30.60;70.90
18575;DHT22;9417;16.484;102.872;2023-06-14T12:32:21;30.50;71.00
18575;DHT22;9417;16.484;102.872;2023-06-14T12:34:31;30.50;71.20
18575;DHT22;9417;16.484;102.872;2023-06-14T12:36:38;30.50;71.00
18575;DHT22;9417;16.484;102.872;2023-06-14T12:38:49;30.50;71.20
18575;DHT22;9417;16.484;102.872;2023-06-14T12:40:58;30.40;71.20
18575;DHT22;9417;16.484;102.872;2023-06-14T12:43:05;30.40;71.10
18575;DHT22;9417;16.484;102.872;2023-06-14T12:45:12;30.50;71.50
18575;DHT22;9417;16.484;102.872;2023-06-14T12:47:20;30.40;71.70
18575;DHT22;9417;16.484;102.872;2023-06-14T12:49:29;30.40;71.90
18575;DHT22;9417;16.484;102.872;2023-06-14T12:51:36;30.40;72.00
18575;DHT22;9417;16.484;102.872;2023-06-14T12:53:44;30.40;72.60
18575;DHT22;9417;16.484;102.872;2023-06-14T12:55:51;30.40;73.30
18575;DHT22;9417;16.484;102.872;2023-06-14T12:57:59;30.30;73.30
18575;DHT22;9417;16.484;102.872;2023-06-14T13:00:07;30.30;73.10
18575;DHT22;9417;16.484;102.872;2023-06-14T13:02:17;30.20;72.70
18575;DHT22;9417;16.484;102.872;2023-06-14T13:04:30;30.20;72.70
18575;DHT22;9417;16.484;102.872;2023-06-14T13:06:37;30.20;73.00
18575;DHT22;9417;16.484;102.872;2023-06-14T13:08:45;30.20;73.90
18575;DHT22;9417;16.484;102.872;2023-06-14T13:10:52;30.10;75.10
18575;DHT22;9417;16.484;102.872;2023-06-14T13:12:59;30.10;75.10
18575;DHT22;9417;16.484;102.872;2023-06-14T13:15:08;30.00;75.60
18575;DHT22;9417;16.484;102.872;2023-06-14T13:17:15;30.00;76.30
18575;DHT22;9417;16.484;102.872;2023-06-14T13:19:23;29.90;76.50
18575;DHT22;9417;16.484;102.872;2023-06-14T13:21:31;29.90;76.80
18575;DHT22;9417;16.484;102.872;2023-06-14T13:23:39;29.90;76.90